createdAt,value
2017-12-10T00:00:23.541Z,2.5
2017-12-10T00:01:25.136Z,2.5
2017-12-10T00:02:26.789Z,2.5
2017-12-10T00:03:28.207Z,2.7
2017-12-10T00:04:29.702Z,2.6
2017-12-10T00:05:31.273Z,2.7
2017-12-10T00:06:32.950Z,2.6
2017-12-10T00:07:34.340Z,2.7
2017-12-10T00:08:35.779Z,2.7
2017-12-10T00:09:37.305Z,2.6
2017-12-10T00:10:38.722Z,2.7
2017-12-10T00:11:40.222Z,2.7
2017-12-10T00:12:41.669Z,2.6
2017-12-10T00:13:43.291Z,2.6
2017-12-10T00:14:44.984Z,2.6
2017-12-10T00:15:46.461Z,2.6
2017-12-10T00:16:47.982Z,2.7
2017-12-10T00:17:49.476Z,2.6
2017-12-10T00:18:50.919Z,2.7
2017-12-10T00:19:52.522Z,2.7
2017-12-10T00:20:54.002Z,2.7
2017-12-10T00:21:55.457Z,2.6
2017-12-10T00:22:57.030Z,2.7
2017-12-10T00:23:58.678Z,2.6
2017-12-10T00:25:00.136Z,2.6
2017-12-10T00:26:01.839Z,2.6
2017-12-10T00:27:03.306Z,2.7
2017-12-10T00:28:04.758Z,2.7
2017-12-10T00:29:06.262Z,2.6
2017-12-10T00:30:07.735Z,2.7
2017-12-10T00:31:09.382Z,2.7
2017-12-10T00:32:10.842Z,2.7
2017-12-10T00:33:12.289Z,2.7
2017-12-10T00:34:13.977Z,2.7
2017-12-10T00:35:15.463Z,2.7
2017-12-10T00:36:16.883Z,2.7
2017-12-10T00:37:18.347Z,2.8
2017-12-10T00:38:19.762Z,2.6
2017-12-10T00:39:21.296Z,2.6
2017-12-10T00:40:22.728Z,2.7
2017-12-10T00:41:24.161Z,2.7
2017-12-10T00:42:25.591Z,2.6
2017-12-10T00:43:27.030Z,2.6
2017-12-10T00:44:28.436Z,2.7
2017-12-10T00:45:29.879Z,2.6
2017-12-10T00:46:31.338Z,2.7
2017-12-10T00:47:32.797Z,2.8
2017-12-10T00:48:34.199Z,2.7
2017-12-10T00:49:35.645Z,2.7
2017-12-10T00:50:37.089Z,2.7
2017-12-10T00:51:38.575Z,2.7
2017-12-10T00:52:40.064Z,2.7
2017-12-10T00:53:41.563Z,2.7
2017-12-10T00:54:42.980Z,2.6
2017-12-10T00:55:44.416Z,2.8
2017-12-10T00:56:45.835Z,2.7
2017-12-10T00:57:47.252Z,2.6
2017-12-10T00:58:48.732Z,2.6
2017-12-10T00:59:50.143Z,2.7
2017-12-10T01:00:51.619Z,2.7
2017-12-10T01:01:53.034Z,2.7
2017-12-10T01:02:54.482Z,2.7
2017-12-10T01:03:55.941Z,2.7
2017-12-10T01:04:57.375Z,2.7
2017-12-10T01:05:58.769Z,2.6
2017-12-10T01:07:00.184Z,2.6
2017-12-10T01:08:01.636Z,2.7
2017-12-10T01:09:03.111Z,2.6
2017-12-10T01:10:04.841Z,2.8
2017-12-10T01:11:06.316Z,2.7
2017-12-10T01:12:07.723Z,2.8
2017-12-10T01:13:09.178Z,2.8
2017-12-10T01:14:10.600Z,2.8
2017-12-10T01:15:11.986Z,2.8
2017-12-10T01:16:13.437Z,2.7
2017-12-10T01:17:14.869Z,2.8
2017-12-10T01:18:16.320Z,2.8
2017-12-10T01:19:17.741Z,2.8
2017-12-10T01:20:19.151Z,2.9
2017-12-10T01:21:20.618Z,2.8
2017-12-10T01:22:22.044Z,2.8
2017-12-10T01:23:23.474Z,2.8
2017-12-10T01:24:24.963Z,2.8
2017-12-10T01:25:26.432Z,2.9
2017-12-10T01:26:27.969Z,2.9
2017-12-10T01:27:29.596Z,2.8
2017-12-10T01:28:31.017Z,2.8
2017-12-10T01:29:32.446Z,2.6
2017-12-10T01:30:34.208Z,2.7
2017-12-10T01:31:35.658Z,2.5
2017-12-10T01:32:37.151Z,2.6
2017-12-10T01:33:38.580Z,2.7
2017-12-10T01:34:40.007Z,2.6
2017-12-10T01:35:41.454Z,2.6
2017-12-10T01:36:42.882Z,2.6
2017-12-10T01:37:44.362Z,2.6
2017-12-10T01:38:45.778Z,2.6
2017-12-10T01:39:47.253Z,2.7
2017-12-10T01:40:48.658Z,2.6
2017-12-10T01:41:50.060Z,2.6
2017-12-10T01:42:51.551Z,2.6
2017-12-10T01:43:53.237Z,2.6
2017-12-10T01:44:54.686Z,2.6
2017-12-10T01:45:56.156Z,2.6
2017-12-10T01:46:57.583Z,2.6
2017-12-10T01:47:59.021Z,2.6
2017-12-10T01:49:00.494Z,2.5
2017-12-10T01:50:01.982Z,2.6
2017-12-10T01:51:03.411Z,2.5
2017-12-10T01:52:04.888Z,2.6
2017-12-10T01:53:06.586Z,2.6
2017-12-10T01:54:08.317Z,2.5
2017-12-10T01:55:09.807Z,2.5
2017-12-10T01:56:11.245Z,2.5
2017-12-10T01:57:12.665Z,2.5
2017-12-10T01:58:14.150Z,2.5
2017-12-10T01:59:15.604Z,2.6
2017-12-10T02:00:17.045Z,2.5
2017-12-10T02:01:18.456Z,2.5
2017-12-10T02:02:19.949Z,2.5
2017-12-10T02:03:21.364Z,2.4
2017-12-10T02:04:22.775Z,2.5
2017-12-10T02:05:24.222Z,2.5
2017-12-10T02:06:25.649Z,2.4
2017-12-10T02:07:27.141Z,2.5
2017-12-10T02:08:28.547Z,2.4
2017-12-10T02:09:30.035Z,2.4
2017-12-10T02:10:31.495Z,2.3
2017-12-10T02:11:32.937Z,2.4
2017-12-10T02:12:34.382Z,2.5
2017-12-10T02:13:35.817Z,2.4
2017-12-10T02:14:37.273Z,2.4
2017-12-10T02:15:38.783Z,2.4
2017-12-10T02:16:40.204Z,2.4
2017-12-10T02:17:41.657Z,2.4
2017-12-10T02:18:43.098Z,2.4
2017-12-10T02:19:44.554Z,2.4
2017-12-10T02:20:45.998Z,2.4
2017-12-10T02:21:47.477Z,2.4
2017-12-10T02:22:48.869Z,2.4
2017-12-10T02:23:50.285Z,2.4
2017-12-10T02:24:51.792Z,2.4
2017-12-10T02:25:53.273Z,2.4
2017-12-10T02:26:54.713Z,2.4
2017-12-10T02:27:56.223Z,2.4
2017-12-10T02:28:57.667Z,2.4
2017-12-10T02:29:59.086Z,2.4
2017-12-10T02:31:00.497Z,2.4
2017-12-10T02:32:01.936Z,2.4
2017-12-10T02:33:03.368Z,2.4
2017-12-10T02:34:04.786Z,2.5
2017-12-10T02:35:06.255Z,2.6
2017-12-10T02:36:07.649Z,2.5
2017-12-10T02:37:09.152Z,2.6
2017-12-10T02:38:10.586Z,2.6
2017-12-10T02:39:12.061Z,2.6
2017-12-10T02:40:13.480Z,2.6
2017-12-10T02:41:14.907Z,2.7
2017-12-10T02:42:16.299Z,2.6
2017-12-10T02:43:17.746Z,2.6
2017-12-10T02:44:19.208Z,2.6
2017-12-10T02:45:20.631Z,2.6
2017-12-10T02:46:22.054Z,2.6
2017-12-10T02:47:23.530Z,2.6
2017-12-10T02:48:24.984Z,2.6
2017-12-10T02:49:26.413Z,2.6
2017-12-10T02:50:27.823Z,2.6
2017-12-10T02:51:29.340Z,2.5
2017-12-10T02:52:30.739Z,2.6
2017-12-10T02:53:32.220Z,2.6
2017-12-10T02:54:33.662Z,2.6
2017-12-10T02:55:35.079Z,2.6
2017-12-10T02:56:36.603Z,2.7
2017-12-10T02:57:38.064Z,2.7
2017-12-10T02:58:39.492Z,2.6
2017-12-10T02:59:40.925Z,2.6
2017-12-10T03:00:42.398Z,2.7
2017-12-10T03:01:43.812Z,2.6
2017-12-10T03:02:45.660Z,2.7
2017-12-10T03:03:47.072Z,2.7
2017-12-10T03:04:48.508Z,2.7
2017-12-10T03:05:49.948Z,2.6
2017-12-10T03:06:51.388Z,2.6
2017-12-10T03:07:52.865Z,2.5
2017-12-10T03:08:54.275Z,2.5
2017-12-10T03:09:55.702Z,2.5
2017-12-10T03:10:57.146Z,2.4
2017-12-10T03:11:58.539Z,2.4
2017-12-10T03:12:59.967Z,2.4
2017-12-10T03:14:01.421Z,2.5
2017-12-10T03:15:02.882Z,2.4
2017-12-10T03:16:04.355Z,2.5
2017-12-10T03:17:06.052Z,2.6
2017-12-10T03:18:07.793Z,2.5
2017-12-10T03:19:09.244Z,2.5
2017-12-10T03:20:10.631Z,2.5
2017-12-10T03:21:12.110Z,2.6
2017-12-10T03:22:13.567Z,2.6
2017-12-10T03:23:14.993Z,2.5
2017-12-10T03:24:16.491Z,2.5
2017-12-10T03:25:17.991Z,2.5
2017-12-10T03:26:19.411Z,2.4
2017-12-10T03:27:20.892Z,2.5
2017-12-10T03:28:22.319Z,2.5
2017-12-10T03:29:23.765Z,2.5
2017-12-10T03:30:25.187Z,2.4
2017-12-10T03:31:26.894Z,2.4
2017-12-10T03:32:28.635Z,2.5
2017-12-10T03:33:30.606Z,2.5
2017-12-10T03:34:32.162Z,2.5
2017-12-10T03:35:33.546Z,2.5
2017-12-10T03:36:34.973Z,2.4
2017-12-10T03:37:36.464Z,2.4
2017-12-10T03:38:37.994Z,2.4
2017-12-10T03:39:39.398Z,2.3
2017-12-10T03:40:40.856Z,2.3
2017-12-10T03:41:42.350Z,2.4
2017-12-10T03:42:43.779Z,2.3
2017-12-10T03:43:45.192Z,2.3
2017-12-10T03:44:46.839Z,2.4
2017-12-10T03:45:48.401Z,2.4
2017-12-10T03:46:49.880Z,2.3
2017-12-10T03:47:51.293Z,2.4
2017-12-10T03:48:52.743Z,2.3
2017-12-10T03:49:54.307Z,2.4
2017-12-10T03:50:55.756Z,2.3
2017-12-10T03:51:57.212Z,2.3
2017-12-10T03:52:58.662Z,2.3
2017-12-10T03:54:00.273Z,2.3
2017-12-10T03:55:01.664Z,2.2
2017-12-10T03:56:03.123Z,2.3
2017-12-10T03:57:04.548Z,2.3
2017-12-10T03:58:06.002Z,2.3
2017-12-10T03:59:07.461Z,2.3
2017-12-10T04:00:08.963Z,2.3
2017-12-10T04:01:10.386Z,2.3
2017-12-10T04:02:11.867Z,2.3
2017-12-10T04:03:13.299Z,2.3
2017-12-10T04:04:14.748Z,2.3
2017-12-10T04:05:16.194Z,2.3
2017-12-10T04:06:17.651Z,2.3
2017-12-10T04:07:19.093Z,2.3
2017-12-10T04:08:20.530Z,2.3
2017-12-10T04:09:21.946Z,2.3
2017-12-10T04:10:23.374Z,2.3
2017-12-10T04:11:25.218Z,2.4
2017-12-10T04:12:26.636Z,2.3
2017-12-10T04:13:28.080Z,2.4
2017-12-10T04:14:29.522Z,2.4
2017-12-10T04:15:30.931Z,2.3
2017-12-10T04:16:32.491Z,2.3
2017-12-10T04:17:33.952Z,2.3
2017-12-10T04:18:35.409Z,2.3
2017-12-10T04:19:37.003Z,2.3
2017-12-10T04:20:38.404Z,2.3
2017-12-10T04:21:39.816Z,2.3
2017-12-10T04:22:41.231Z,2.3
2017-12-10T04:23:42.712Z,2.3
2017-12-10T04:24:44.298Z,2.3
2017-12-10T04:25:46.265Z,2.3
2017-12-10T04:26:48.124Z,2.3
2017-12-10T04:27:49.531Z,2.2
2017-12-10T04:28:50.974Z,2.3
2017-12-10T04:29:52.521Z,2.3
2017-12-10T04:30:53.950Z,2.3
2017-12-10T04:31:55.381Z,2.3
2017-12-10T04:32:56.784Z,2.4
2017-12-10T04:33:58.673Z,2.4
2017-12-10T04:35:00.188Z,2.4
2017-12-10T04:36:01.601Z,2.4
2017-12-10T04:37:03.175Z,2.4
2017-12-10T04:38:04.719Z,2.4
2017-12-10T04:39:06.465Z,2.4
2017-12-10T04:40:08.181Z,2.3
2017-12-10T04:41:09.669Z,2.3
2017-12-10T04:42:11.144Z,2.3
2017-12-10T04:43:12.593Z,2.4
2017-12-10T04:44:14.068Z,2.4
2017-12-10T04:45:15.502Z,2.4
2017-12-10T04:46:16.941Z,2.4
2017-12-10T04:47:18.411Z,2.4
2017-12-10T04:48:19.887Z,2.4
2017-12-10T04:49:21.356Z,2.4
2017-12-10T04:50:22.791Z,2.3
2017-12-10T04:51:24.233Z,2.3
2017-12-10T04:52:25.674Z,2.4
2017-12-10T04:53:27.066Z,2.3
2017-12-10T04:54:28.498Z,2.3
2017-12-10T04:55:29.943Z,2.3
2017-12-10T04:56:31.332Z,2.3
2017-12-10T04:57:32.789Z,2.3
2017-12-10T04:58:34.205Z,2.3
2017-12-10T04:59:35.620Z,2.3
2017-12-10T05:00:37.047Z,2.3
2017-12-10T05:01:38.459Z,2.3
2017-12-10T05:02:39.881Z,2.3
2017-12-10T05:03:41.281Z,2.3
2017-12-10T05:04:42.756Z,2.3
2017-12-10T05:05:44.165Z,2.3
2017-12-10T05:06:45.608Z,2.3
2017-12-10T05:07:47.037Z,2.3
2017-12-10T05:08:48.474Z,2.3
2017-12-10T05:09:49.907Z,2.3
2017-12-10T05:10:51.338Z,2.4
2017-12-10T05:11:52.789Z,2.4
2017-12-10T05:12:54.222Z,2.4
2017-12-10T05:13:55.629Z,2.4
2017-12-10T05:14:57.054Z,2.5
2017-12-10T05:15:58.408Z,2.5
2017-12-10T05:16:59.818Z,2.4
2017-12-10T05:18:01.230Z,2.4
2017-12-10T05:19:02.678Z,2.4
2017-12-10T05:20:04.114Z,2.3
2017-12-10T05:21:05.534Z,2.3
2017-12-10T05:22:06.958Z,2.2
2017-12-10T05:23:08.358Z,2.3
2017-12-10T05:24:09.754Z,2.2
2017-12-10T05:25:11.164Z,2.2
2017-12-10T05:26:12.605Z,2.2
2017-12-10T05:27:14.009Z,2.3
2017-12-10T05:28:15.429Z,2.3
2017-12-10T05:29:16.832Z,2.3
2017-12-10T05:30:18.231Z,2.3
2017-12-10T05:31:19.628Z,2.2
2017-12-10T05:32:21.050Z,2.2
2017-12-10T05:33:22.485Z,2.2
2017-12-10T05:34:23.916Z,2.3
2017-12-10T05:35:25.288Z,2.3
2017-12-10T05:36:26.693Z,2.3
2017-12-10T05:37:28.092Z,2.3
2017-12-10T05:38:29.522Z,2.2
2017-12-10T05:39:30.958Z,2.2
2017-12-10T05:40:32.389Z,2.2
2017-12-10T05:41:33.796Z,2.2
2017-12-10T05:42:35.214Z,2.2
2017-12-10T05:43:36.625Z,2.2
2017-12-10T05:44:38.049Z,2.2
2017-12-10T05:45:39.495Z,2.3
2017-12-10T05:46:40.881Z,2.4
2017-12-10T05:47:42.522Z,2.3
2017-12-10T05:48:43.984Z,2.3
2017-12-10T05:49:45.377Z,2.3
2017-12-10T05:50:46.815Z,2.3
2017-12-10T05:51:48.242Z,2.2
2017-12-10T05:52:49.671Z,2.3
2017-12-10T05:53:51.118Z,2.3
2017-12-10T05:54:52.639Z,2.4
2017-12-10T05:55:54.093Z,2.4
2017-12-10T05:56:55.508Z,2.3
2017-12-10T05:57:56.939Z,2.4
2017-12-10T05:58:58.357Z,2.3
2017-12-10T05:59:59.800Z,2.4
2017-12-10T06:01:01.254Z,2.4
2017-12-10T06:02:02.751Z,2.4
2017-12-10T06:03:04.152Z,2.3
2017-12-10T06:04:05.596Z,2.4
2017-12-10T06:05:07.036Z,2.4
2017-12-10T06:06:08.456Z,2.5
2017-12-10T06:07:09.891Z,2.5
2017-12-10T06:08:11.328Z,2.4
2017-12-10T06:09:12.747Z,2.5
2017-12-10T06:10:14.193Z,2.4
2017-12-10T06:11:15.604Z,2.5
2017-12-10T06:12:17.018Z,2.5
2017-12-10T06:13:18.481Z,2.5
2017-12-10T06:14:19.901Z,2.4
2017-12-10T06:15:21.322Z,2.5
2017-12-10T06:16:22.751Z,2.5
2017-12-10T06:17:24.211Z,2.5
2017-12-10T06:18:25.616Z,2.5
2017-12-10T06:19:27.036Z,2.7
2017-12-10T06:20:28.471Z,2.5
2017-12-10T06:21:29.897Z,2.6
2017-12-10T06:22:31.328Z,2.6
2017-12-10T06:23:32.763Z,2.6
2017-12-10T06:24:34.198Z,2.5
2017-12-10T06:25:35.656Z,2.6
2017-12-10T06:26:37.091Z,2.6
2017-12-10T06:27:38.569Z,2.6
2017-12-10T06:28:39.976Z,2.7
2017-12-10T06:29:41.371Z,2.6
2017-12-10T06:30:42.871Z,2.6
2017-12-10T06:31:44.279Z,2.6
2017-12-10T06:32:45.745Z,2.6
2017-12-10T06:33:47.148Z,2.7
2017-12-10T06:34:48.527Z,2.7
2017-12-10T06:35:49.985Z,2.6
2017-12-10T06:36:51.395Z,2.7
2017-12-10T06:37:52.799Z,2.7
2017-12-10T06:38:54.229Z,2.5
2017-12-10T06:39:55.630Z,2.6
2017-12-10T06:40:57.063Z,2.6
2017-12-10T06:41:58.486Z,2.6
2017-12-10T06:42:59.911Z,2.7
2017-12-10T06:44:01.329Z,2.7
2017-12-10T06:45:02.874Z,2.6
2017-12-10T06:46:04.292Z,2.7
2017-12-10T06:47:05.734Z,2.7
2017-12-10T06:48:07.160Z,2.7
2017-12-10T06:49:08.562Z,2.6
2017-12-10T06:50:09.968Z,2.6
2017-12-10T06:51:11.453Z,2.6
2017-12-10T06:52:12.804Z,2.5
2017-12-10T06:53:14.200Z,2.6
2017-12-10T06:54:15.618Z,2.5
2017-12-10T06:55:17.037Z,2.6
2017-12-10T06:56:18.445Z,2.5
2017-12-10T06:57:19.833Z,2.6
2017-12-10T06:58:21.202Z,2.6
2017-12-10T06:59:22.642Z,2.6
2017-12-10T07:00:24.096Z,2.6
2017-12-10T07:01:25.491Z,2.6
2017-12-10T07:02:26.874Z,2.5
2017-12-10T07:03:28.297Z,2.7
2017-12-10T07:04:29.752Z,2.5
2017-12-10T07:05:31.178Z,2.6
2017-12-10T07:06:32.589Z,2.6
2017-12-10T07:07:34.031Z,2.5
2017-12-10T07:08:35.451Z,2.5
2017-12-10T07:09:36.862Z,2.5
2017-12-10T07:10:38.349Z,2.5
2017-12-10T07:11:39.803Z,2.6
2017-12-10T07:12:41.203Z,2.6
2017-12-10T07:13:42.627Z,2.5
2017-12-10T07:14:44.036Z,2.6
2017-12-10T07:15:45.423Z,2.5
2017-12-10T07:16:46.869Z,2.5
2017-12-10T07:17:48.298Z,2.5
2017-12-10T07:18:49.725Z,2.5
2017-12-10T07:19:51.147Z,2.6
2017-12-10T07:20:52.540Z,2.5
2017-12-10T07:21:53.966Z,2.5
2017-12-10T07:22:55.344Z,2.4
2017-12-10T07:23:56.736Z,2.5
2017-12-10T07:24:58.203Z,2.5
2017-12-10T07:25:59.918Z,2.5
2017-12-10T07:27:01.337Z,2.4
2017-12-10T07:28:02.783Z,2.5
2017-12-10T07:29:04.441Z,2.4
2017-12-10T07:30:05.842Z,2.4
2017-12-10T07:31:07.276Z,2.5
2017-12-10T07:32:08.669Z,2.4
2017-12-10T07:33:10.094Z,2.5
2017-12-10T07:34:11.488Z,2.4
2017-12-10T07:35:12.949Z,2.5
2017-12-10T07:36:14.324Z,2.4
2017-12-10T07:37:15.773Z,2.5
2017-12-10T07:38:17.202Z,2.5
2017-12-10T07:39:18.602Z,2.5
2017-12-10T07:40:20.026Z,2.5
2017-12-10T07:41:21.429Z,2.6
2017-12-10T07:42:22.852Z,2.5
2017-12-10T07:43:24.276Z,2.4
2017-12-10T07:44:25.686Z,2.4
2017-12-10T07:45:27.071Z,2.5
2017-12-10T07:46:28.506Z,2.6
2017-12-10T07:47:29.915Z,2.4
2017-12-10T07:48:31.330Z,2.5
2017-12-10T07:49:32.772Z,2.5
2017-12-10T07:50:34.196Z,2.5
2017-12-10T07:51:35.591Z,2.5
2017-12-10T07:52:36.971Z,2.5
2017-12-10T07:53:38.408Z,2.6
2017-12-10T07:54:39.834Z,2.6
2017-12-10T07:55:41.207Z,2.6
2017-12-10T07:56:42.640Z,2.6
2017-12-10T07:57:44.022Z,2.5
2017-12-10T07:58:45.432Z,2.6
2017-12-10T07:59:46.851Z,2.6
2017-12-10T08:00:48.294Z,2.7
2017-12-10T08:01:49.679Z,2.7
2017-12-10T08:02:51.060Z,2.6
2017-12-10T08:03:52.495Z,2.7
2017-12-10T08:04:53.935Z,2.6
2017-12-10T08:05:55.353Z,2.7
2017-12-10T08:06:56.728Z,2.7
2017-12-10T08:07:58.159Z,2.6
2017-12-10T08:08:59.564Z,2.5
2017-12-10T08:10:00.967Z,2.5
2017-12-10T08:11:02.346Z,2.5
2017-12-10T08:12:03.775Z,2.6
2017-12-10T08:13:05.186Z,2.6
2017-12-10T08:14:06.593Z,2.6
2017-12-10T08:15:08.033Z,2.6
2017-12-10T08:16:09.442Z,2.7
2017-12-10T08:17:10.858Z,2.7
2017-12-10T08:18:12.225Z,2.7
2017-12-10T08:19:13.591Z,2.6
2017-12-10T08:20:14.995Z,2.7
2017-12-10T08:21:16.366Z,2.8
2017-12-10T08:22:17.796Z,2.6
2017-12-10T08:23:19.261Z,2.8
2017-12-10T08:24:20.674Z,2.7
2017-12-10T08:25:22.040Z,2.8
2017-12-10T08:26:23.475Z,2.8
2017-12-10T08:27:24.890Z,2.8
2017-12-10T08:28:26.295Z,2.8
2017-12-10T08:29:27.714Z,2.8
2017-12-10T08:30:29.097Z,2.8
2017-12-10T08:31:30.561Z,2.9
2017-12-10T08:32:31.936Z,2.8
2017-12-10T08:33:33.418Z,2.8
2017-12-10T08:34:34.824Z,2.9
2017-12-10T08:35:36.220Z,2.9
2017-12-10T08:36:37.639Z,2.9
2017-12-10T08:37:39.071Z,2.9
2017-12-10T08:38:40.467Z,2.9
2017-12-10T08:39:41.910Z,2.9
2017-12-10T08:40:43.346Z,2.9
2017-12-10T08:41:44.932Z,2.9
2017-12-10T08:42:46.331Z,2.9
2017-12-10T08:43:47.734Z,3.0
2017-12-10T08:44:49.144Z,2.9
2017-12-10T08:45:50.601Z,2.9
2017-12-10T08:46:52.017Z,3.0
2017-12-10T08:47:53.458Z,2.9
2017-12-10T08:48:54.871Z,2.9
2017-12-10T08:49:56.300Z,2.9
2017-12-10T08:50:57.710Z,2.9
2017-12-10T08:51:59.146Z,3.0
2017-12-10T08:53:00.630Z,2.9
2017-12-10T08:54:02.006Z,2.9
2017-12-10T08:55:03.424Z,3.0
2017-12-10T08:56:05.050Z,3.0
2017-12-10T08:57:06.780Z,3.0
2017-12-10T08:58:08.459Z,3.0
2017-12-10T08:59:09.870Z,3.0
2017-12-10T09:00:11.298Z,2.9
2017-12-10T09:01:12.762Z,2.9
2017-12-10T09:02:14.165Z,3.0
2017-12-10T09:03:15.586Z,2.9
2017-12-10T09:04:17.016Z,3.1
2017-12-10T09:05:18.452Z,3.0
2017-12-10T09:06:19.873Z,3.1
2017-12-10T09:07:21.267Z,3.1
2017-12-10T09:08:22.709Z,3.1
2017-12-10T09:09:24.127Z,3.0
2017-12-10T09:10:25.498Z,3.0
2017-12-10T09:11:26.959Z,3.0
2017-12-10T09:12:28.407Z,3.1
2017-12-10T09:13:29.791Z,3.0
2017-12-10T09:14:31.205Z,3.0
2017-12-10T09:15:32.657Z,3.0
2017-12-10T09:16:34.087Z,3.0
2017-12-10T09:17:35.502Z,3.0
2017-12-10T09:18:36.949Z,3.0
2017-12-10T09:19:38.379Z,3.0
2017-12-10T09:20:39.778Z,3.1
2017-12-10T09:21:41.160Z,3.1
2017-12-10T09:22:42.602Z,3.0
2017-12-10T09:23:44.036Z,3.1
2017-12-10T09:24:45.463Z,3.0
2017-12-10T09:25:46.916Z,3.0
2017-12-10T09:26:48.391Z,3.0
2017-12-10T09:27:49.841Z,3.1
2017-12-10T09:28:51.243Z,3.0
2017-12-10T09:29:52.700Z,3.0
2017-12-10T09:30:54.128Z,3.0
2017-12-10T09:31:55.531Z,3.1
2017-12-10T09:32:56.926Z,3.0
2017-12-10T09:33:58.355Z,3.1
2017-12-10T09:34:59.763Z,2.9
2017-12-10T09:36:01.201Z,3.0
2017-12-10T09:37:02.624Z,3.1
2017-12-10T09:38:04.072Z,3.0
2017-12-10T09:39:05.508Z,3.1
2017-12-10T09:40:06.926Z,3.1
2017-12-10T09:41:08.373Z,3.1
2017-12-10T09:42:09.799Z,3.1
2017-12-10T09:43:11.211Z,3.1
2017-12-10T09:44:12.647Z,3.1
2017-12-10T09:45:14.066Z,3.1
2017-12-10T09:46:15.512Z,3.0
2017-12-10T09:47:16.882Z,3.0
2017-12-10T09:48:18.318Z,3.0
2017-12-10T09:49:19.786Z,3.0
2017-12-10T09:50:21.252Z,3.0
2017-12-10T09:51:22.649Z,3.1
2017-12-10T09:52:24.031Z,3.1
2017-12-10T09:53:25.407Z,3.2
2017-12-10T09:54:26.848Z,3.1
2017-12-10T09:55:28.295Z,3.2
2017-12-10T09:56:29.696Z,3.2
2017-12-10T09:57:31.072Z,3.2
2017-12-10T09:58:32.506Z,3.1
2017-12-10T09:59:33.919Z,3.2
2017-12-10T10:00:35.417Z,3.1
2017-12-10T10:01:36.829Z,3.1
2017-12-10T10:02:38.315Z,3.2
2017-12-10T10:03:39.740Z,3.2
2017-12-10T10:04:41.187Z,3.2
2017-12-10T10:05:42.643Z,3.1
2017-12-10T10:06:44.008Z,3.1
2017-12-10T10:07:45.461Z,3.2
2017-12-10T10:08:46.895Z,3.1
2017-12-10T10:09:48.378Z,3.2
2017-12-10T10:10:49.810Z,3.1
2017-12-10T10:11:51.247Z,3.2
2017-12-10T10:12:52.721Z,3.2
2017-12-10T10:13:54.394Z,3.1
2017-12-10T10:14:55.854Z,3.1
2017-12-10T10:15:57.293Z,3.1
2017-12-10T10:16:58.721Z,3.1
2017-12-10T10:18:00.242Z,3.1
2017-12-10T10:19:01.652Z,3.1
2017-12-10T10:20:03.094Z,3.2
2017-12-10T10:21:04.521Z,3.1
2017-12-10T10:22:05.927Z,3.1
2017-12-10T10:23:07.363Z,3.2
2017-12-10T10:24:08.821Z,3.1
2017-12-10T10:25:10.250Z,3.2
2017-12-10T10:26:11.669Z,3.2
2017-12-10T10:27:13.107Z,3.1
2017-12-10T10:28:14.526Z,3.2
2017-12-10T10:29:15.908Z,3.2
2017-12-10T10:30:17.294Z,3.2
2017-12-10T10:31:18.686Z,3.2
2017-12-10T10:32:20.163Z,3.1
2017-12-10T10:33:21.527Z,3.2
2017-12-10T10:34:22.972Z,3.2
2017-12-10T10:35:24.386Z,3.2
2017-12-10T10:36:25.841Z,3.2
2017-12-10T10:37:27.256Z,3.2
2017-12-10T10:38:28.698Z,3.2
2017-12-10T10:39:30.110Z,3.2
2017-12-10T10:40:31.539Z,3.2
2017-12-10T10:41:33.049Z,3.2
2017-12-10T10:42:34.604Z,3.2
2017-12-10T10:43:36.166Z,3.2
2017-12-10T10:44:37.666Z,3.2
2017-12-10T10:45:39.272Z,3.2
2017-12-10T10:46:40.693Z,3.2
2017-12-10T10:47:42.308Z,3.2
2017-12-10T10:48:43.785Z,3.2
2017-12-10T10:49:45.301Z,3.2
2017-12-10T10:50:46.737Z,3.2
2017-12-10T10:51:48.213Z,3.2
2017-12-10T10:52:49.660Z,3.1
2017-12-10T10:53:51.105Z,3.2
2017-12-10T10:54:52.585Z,3.2
2017-12-10T10:55:54.007Z,3.2
2017-12-10T10:56:55.478Z,3.2
2017-12-10T10:57:57.062Z,3.2
2017-12-10T10:58:58.569Z,3.2
2017-12-10T10:59:59.964Z,3.2
2017-12-10T11:01:01.346Z,3.2
2017-12-10T11:02:02.768Z,3.2
2017-12-10T11:03:04.208Z,3.3
2017-12-10T11:04:05.680Z,3.2
2017-12-10T11:05:07.229Z,3.2
2017-12-10T11:06:08.987Z,3.2
2017-12-10T11:07:10.656Z,3.2
2017-12-10T11:08:12.056Z,3.2
2017-12-10T11:09:13.481Z,3.1
2017-12-10T11:10:15.094Z,3.1
2017-12-10T11:11:16.558Z,3.0
2017-12-10T11:12:18.019Z,3.1
2017-12-10T11:13:19.609Z,3.0
2017-12-10T11:14:21.158Z,3.0
2017-12-10T11:15:22.546Z,3.0
2017-12-10T11:16:23.978Z,3.0
2017-12-10T11:17:25.528Z,3.0
2017-12-10T11:18:27.032Z,3.0
2017-12-10T11:19:28.461Z,3.0
2017-12-10T11:20:29.859Z,3.0
2017-12-10T11:21:31.272Z,2.9
2017-12-10T11:22:32.680Z,3.0
2017-12-10T11:23:34.117Z,3.0
2017-12-10T11:24:35.571Z,2.9
2017-12-10T11:25:37.136Z,2.9
2017-12-10T11:26:38.567Z,3.0
2017-12-10T11:27:40.002Z,2.9
2017-12-10T11:28:41.457Z,2.9
2017-12-10T11:29:42.949Z,2.9
2017-12-10T11:30:44.324Z,3.0
2017-12-10T11:31:45.779Z,2.9
2017-12-10T11:32:47.592Z,3.0
2017-12-10T11:33:49.330Z,2.9
2017-12-10T11:34:50.937Z,2.9
2017-12-10T11:35:52.391Z,3.1
2017-12-10T11:36:54.160Z,3.1
2017-12-10T11:37:55.576Z,2.9
2017-12-10T11:38:56.972Z,3.0
2017-12-10T11:39:58.514Z,3.0
2017-12-10T11:40:59.989Z,3.0
2017-12-10T11:42:01.456Z,3.1
2017-12-10T11:43:02.999Z,3.1
2017-12-10T11:44:04.411Z,3.0
2017-12-10T11:45:05.840Z,3.0
2017-12-10T11:46:07.357Z,3.0
2017-12-10T11:47:08.870Z,2.9
2017-12-10T11:48:10.298Z,3.0
2017-12-10T11:49:11.783Z,2.9
2017-12-10T11:50:13.227Z,2.9
2017-12-10T11:51:14.657Z,2.9
2017-12-10T11:52:16.063Z,2.9
2017-12-10T11:53:17.472Z,2.9
2017-12-10T11:54:18.879Z,2.9
2017-12-10T11:55:20.303Z,2.9
2017-12-10T11:56:21.744Z,2.8
2017-12-10T11:57:23.158Z,2.7
2017-12-10T11:58:24.598Z,2.7
2017-12-10T11:59:25.973Z,2.7
2017-12-10T12:00:27.430Z,2.6
2017-12-10T12:01:28.858Z,2.5
2017-12-10T12:02:30.305Z,2.5
2017-12-10T12:03:31.719Z,2.5
2017-12-10T12:04:33.178Z,2.4
2017-12-10T12:05:34.774Z,2.2
2017-12-10T12:06:36.183Z,2.3
2017-12-10T12:07:37.634Z,2.2
2017-12-10T12:08:39.105Z,2.2
2017-12-10T12:09:40.540Z,2.1
2017-12-10T12:10:41.966Z,2.0
2017-12-10T12:11:43.435Z,2.2
2017-12-10T12:12:44.881Z,2.2
2017-12-10T12:13:46.314Z,2.1
2017-12-10T12:14:47.767Z,2.1
2017-12-10T12:15:49.198Z,2.1
2017-12-10T12:16:50.626Z,2.2
2017-12-10T12:17:52.016Z,2.0
2017-12-10T12:18:53.435Z,2.1
2017-12-10T12:19:54.878Z,2.1
2017-12-10T12:20:56.283Z,2.2
2017-12-10T12:21:57.670Z,2.2
2017-12-10T12:22:59.092Z,2.2
2017-12-10T12:24:00.575Z,2.2
2017-12-10T12:25:01.936Z,2.2
2017-12-10T12:26:03.395Z,2.1
2017-12-10T12:27:04.812Z,2.1
2017-12-10T12:28:06.250Z,2.0
2017-12-10T12:29:07.645Z,2.2
2017-12-10T12:30:09.088Z,2.2
2017-12-10T12:31:10.479Z,2.1
2017-12-10T12:32:11.878Z,2.1
2017-12-10T12:33:13.283Z,2.2
2017-12-10T12:34:14.703Z,2.0
2017-12-10T12:35:16.121Z,2.1
2017-12-10T12:36:18.103Z,2.1
2017-12-10T12:37:19.539Z,2.0
2017-12-10T12:38:20.919Z,2.0
2017-12-10T12:39:22.361Z,2.0
2017-12-10T12:40:23.750Z,1.9
2017-12-10T12:41:25.172Z,1.9
2017-12-10T12:42:26.552Z,1.8
2017-12-10T12:43:27.938Z,1.8
2017-12-10T12:44:29.309Z,1.9
2017-12-10T12:45:30.710Z,1.8
2017-12-10T12:46:32.128Z,1.8
2017-12-10T12:47:33.547Z,1.8
2017-12-10T12:48:34.988Z,1.8
2017-12-10T12:49:36.351Z,1.7
2017-12-10T12:50:37.756Z,1.6
2017-12-10T12:51:39.152Z,1.5
2017-12-10T12:52:40.555Z,1.6
2017-12-10T12:53:41.943Z,1.7
2017-12-10T12:54:43.382Z,1.8
2017-12-10T12:55:44.822Z,1.8
2017-12-10T12:56:46.347Z,1.6
2017-12-10T12:57:47.853Z,1.7
2017-12-10T12:58:49.265Z,1.6
2017-12-10T12:59:50.673Z,1.6
2017-12-10T13:00:52.086Z,1.6
2017-12-10T13:01:53.487Z,1.5
2017-12-10T13:02:54.911Z,1.5
2017-12-10T13:03:56.277Z,1.5
2017-12-10T13:04:57.707Z,1.4
2017-12-10T13:05:59.088Z,1.3
2017-12-10T13:07:00.484Z,1.4
2017-12-10T13:08:01.896Z,1.4
2017-12-10T13:09:03.349Z,1.3
2017-12-10T13:10:04.720Z,1.4
2017-12-10T13:11:06.132Z,1.5
2017-12-10T13:12:07.490Z,1.5
2017-12-10T13:13:08.931Z,1.5
2017-12-10T13:14:10.319Z,1.5
2017-12-10T13:15:11.689Z,1.5
2017-12-10T13:16:13.123Z,1.5
2017-12-10T13:17:14.522Z,1.3
2017-12-10T13:18:15.898Z,1.3
2017-12-10T13:19:17.275Z,1.4
2017-12-10T13:20:18.660Z,1.4
2017-12-10T13:21:20.069Z,1.3
2017-12-10T13:22:21.440Z,1.3
2017-12-10T13:23:22.823Z,1.4
2017-12-10T13:24:24.200Z,1.4
2017-12-10T13:25:25.641Z,1.4
2017-12-10T13:26:27.029Z,1.5
2017-12-10T13:27:28.439Z,1.5
2017-12-10T13:28:29.884Z,1.5
2017-12-10T13:29:31.263Z,1.4
2017-12-10T13:30:32.675Z,1.5
2017-12-10T13:31:34.053Z,1.5
2017-12-10T13:32:35.490Z,1.5
2017-12-10T13:33:36.873Z,1.6
2017-12-10T13:34:38.252Z,1.6
2017-12-10T13:35:39.639Z,1.6
2017-12-10T13:36:41.012Z,1.7
2017-12-10T13:37:42.386Z,1.7
2017-12-10T13:38:43.821Z,1.8
2017-12-10T13:39:45.216Z,1.7
2017-12-10T13:40:46.633Z,1.8
2017-12-10T13:41:48.026Z,1.8
2017-12-10T13:42:49.410Z,1.8
2017-12-10T13:43:50.785Z,1.8
2017-12-10T13:44:52.235Z,1.8
2017-12-10T13:45:53.608Z,1.8
2017-12-10T13:46:54.996Z,1.8
2017-12-10T13:47:56.366Z,1.8
2017-12-10T13:48:57.737Z,1.9
2017-12-10T13:49:59.104Z,1.9
2017-12-10T13:51:00.504Z,1.8
2017-12-10T13:52:01.864Z,1.8
2017-12-10T13:53:03.251Z,1.9
2017-12-10T13:54:04.628Z,2.0
2017-12-10T13:55:06.047Z,2.0
2017-12-10T13:56:07.416Z,2.0
2017-12-10T13:57:08.877Z,2.0
2017-12-10T13:58:10.265Z,2.0
2017-12-10T13:59:11.672Z,2.0
2017-12-10T14:00:13.066Z,1.8
2017-12-10T14:01:14.426Z,1.9
2017-12-10T14:02:15.793Z,1.9
2017-12-10T14:03:17.167Z,1.8
2017-12-10T14:04:18.595Z,1.9
2017-12-10T14:05:20.009Z,1.9
2017-12-10T14:06:21.370Z,1.8